Time;durP1;ratioP1;P1;durP2;ratioP2;P2;SDS_P1;SDS_P2;PMS_P1;PMS_P2;Temp;Humidity;BMP_temperature;BMP_pressure;BME280_temperature;BME280_humidity;BME280_pressure;Samples;Min_cycle;Max_cycle;Signal;HPM_P1;HPM_P2
2021/09/08 00:00:24;;;;;;;4.30;3.17;;;25.20;47.80;;;;;;5024897;28;20096;-53
2021/09/08 00:02:50;;;;;;;3.83;3.30;;;25.20;47.80;;;;;;5017362;28;20029;-49
2021/09/08 00:05:15;;;;;;;3.97;3.35;;;25.20;47.90;;;;;;5028045;28;20141;-56
2021/09/08 00:07:41;;;;;;;4.53;3.30;;;25.10;47.80;;;;;;5018511;28;20048;-58
2021/09/08 00:10:08;;;;;;;3.75;3.30;;;25.10;47.80;;;;;;5022135;28;20049;-55
2021/09/08 00:12:35;;;;;;;3.70;3.30;;;25.10;47.90;;;;;;5021450;28;20462;-60
2021/09/08 00:15:01;;;;;;;3.85;3.30;;;25.10;48.00;;;;;;5027121;28;20029;-55
2021/09/08 00:17:27;;;;;;;4.20;3.55;;;25.10;47.90;;;;;;5026264;28;20512;-52
2021/09/08 00:19:52;;;;;;;3.65;3.13;;;25.10;48.00;;;;;;5026626;28;20045;-56
2021/09/08 00:22:18;;;;;;;4.00;3.40;;;25.10;48.00;;;;;;5018132;28;20029;-59
2021/09/08 00:24:44;;;;;;;4.13;3.30;;;25.10;48.00;;;;;;5027669;28;20022;-51
2021/09/08 00:27:09;;;;;;;3.83;3.40;;;25.10;48.00;;;;;;5018171;28;20773;-55
2021/09/08 00:29:35;;;;;;;3.72;3.33;;;25.10;48.10;;;;;;5024069;28;20080;-57
2021/09/08 00:32:04;;;;;;;3.83;3.25;;;25.10;48.60;;;;;;5028202;28;20053;-52
2021/09/08 00:34:30;;;;;;;4.63;3.58;;;25.10;48.10;;;;;;5029319;28;20036;-52
2021/09/08 00:36:55;;;;;;;3.72;3.10;;;25.10;48.10;;;;;;5027472;28;20041;-61
2021/09/08 00:39:21;;;;;;;3.97;3.50;;;25.10;48.20;;;;;;5021512;28;20037;-56
2021/09/08 00:41:47;;;;;;;3.53;3.15;;;25.00;48.10;;;;;;5022695;28;20025;-53
2021/09/08 00:44:14;;;;;;;4.03;3.53;;;25.10;48.20;;;;;;5021078;28;20054;-52
2021/09/08 00:46:44;;;;;;;3.88;3.20;;;25.00;48.20;;;;;;5012685;28;20049;-59
2021/09/08 00:49:11;;;;;;;3.80;3.30;;;25.00;48.20;;;;;;5014226;28;20074;-57
2021/09/08 00:51:38;;;;;;;3.60;3.10;;;25.00;48.20;;;;;;5025017;28;20369;-60
2021/09/08 00:54:16;;;;;;;4.25;3.70;;;25.00;48.20;;;;;;5024120;28;20168;-60
2021/09/08 00:56:44;;;;;;;4.43;3.43;;;25.00;48.30;;;;;;5026957;28;20041;-60
2021/09/08 00:59:10;;;;;;;3.70;3.13;;;25.00;48.30;;;;;;5020691;28;20068;-60
2021/09/08 01:01:36;;;;;;;4.13;3.17;;;25.00;48.30;;;;;;5021949;28;20064;-58
2021/09/08 01:04:02;;;;;;;4.28;3.30;;;25.00;48.30;;;;;;5026625;28;20458;-55
2021/09/08 01:06:28;;;;;;;4.13;3.40;;;25.00;48.40;;;;;;5025744;28;20131;-52
2021/09/08 01:08:54;;;;;;;3.83;3.38;;;25.00;48.40;;;;;;5021053;28;20030;-59
2021/09/08 01:11:21;;;;;;;3.65;3.10;;;24.90;48.40;;;;;;5019788;28;20573;-58
2021/09/08 01:13:46;;;;;;;3.60;3.03;;;24.90;48.40;;;;;;5024036;28;20026;-61
2021/09/08 01:16:12;;;;;;;3.95;3.30;;;24.90;48.40;;;;;;5023550;28;20044;-59
2021/09/08 01:18:38;;;;;;;3.97;3.40;;;24.90;48.40;;;;;;5025885;28;20417;-53
2021/09/08 01:21:04;;;;;;;3.90;3.40;;;24.90;48.50;;;;;;5020584;28;20033;-50
2021/09/08 01:23:31;;;;;;;4.00;3.30;;;24.90;48.50;;;;;;5024832;28;20022;-49
2021/09/08 01:26:02;;;;;;;3.70;3.20;;;24.90;48.50;;;;;;5027979;28;20079;-58
2021/09/08 01:28:28;;;;;;;3.67;3.17;;;24.90;48.50;;;;;;5016318;28;20077;-52
2021/09/08 01:30:55;;;;;;;3.70;3.00;;;24.90;49.00;;;;;;5015698;28;20069;-58
2021/09/08 01:33:21;;;;;;;4.00;3.17;;;24.90;48.50;;;;;;5018151;28;20038;-58
2021/09/08 01:35:46;;;;;;;3.83;3.00;;;24.80;48.50;;;;;;5016874;28;20092;-61
2021/09/08 01:38:12;;;;;;;3.65;3.13;;;24.80;48.70;;;;;;5020812;28;20065;-59
2021/09/08 01:40:38;;;;;;;3.42;2.97;;;24.80;48.50;;;;;;5022567;28;20129;-61
2021/09/08 01:43:03;;;;;;;3.80;3.13;;;24.80;48.60;;;;;;5021702;28;20041;-54
2021/09/08 01:45:29;;;;;;;3.58;3.03;;;24.80;48.60;;;;;;5009799;28;20109;-60
2021/09/08 01:47:56;;;;;;;3.55;3.00;;;24.80;48.60;;;;;;5018752;28;20030;-61
2021/09/08 01:50:23;;;;;;;4.45;2.85;;;24.80;48.60;;;;;;5020476;28;20021;-57
2021/09/08 01:52:49;;;;;;;3.20;2.72;;;24.80;48.70;;;;;;5040020;28;20095;-56
2021/09/08 01:55:15;;;;;;;3.95;2.83;;;24.80;48.70;;;;;;5026879;28;20045;-58
2021/09/08 01:57:40;;;;;;;4.50;3.15;;;24.80;48.70;;;;;;5019023;28;20029;-58
2021/09/08 02:00:07;;;;;;;3.75;3.05;;;24.80;48.70;;;;;;5026565;28;20128;-58
2021/09/08 02:02:34;;;;;;;3.88;3.30;;;24.80;48.70;;;;;;5016459;28;20026;-57
2021/09/08 02:04:59;;;;;;;3.50;2.83;;;24.80;48.70;;;;;;5015959;28;20109;-51
2021/09/08 02:07:25;;;;;;;3.50;2.92;;;24.80;49.30;;;;;;5023851;28;20640;-59
2021/09/08 02:09:50;;;;;;;3.70;3.00;;;24.80;48.80;;;;;;5026362;28;20113;-57
2021/09/08 02:12:16;;;;;;;3.72;3.10;;;24.80;48.80;;;;;;5021778;28;20465;-57
2021/09/08 02:14:42;;;;;;;3.35;2.95;;;24.70;48.80;;;;;;5020614;28;20052;-55
2021/09/08 02:17:07;;;;;;;3.35;2.80;;;24.70;48.80;;;;;;5027274;28;20461;-49
2021/09/08 02:19:33;;;;;;;3.42;2.90;;;24.70;48.80;;;;;;5017518;28;20030;-53
2021/09/08 02:21:58;;;;;;;3.38;2.80;;;24.70;48.80;;;;;;5021375;28;20028;-54
2021/09/08 02:24:24;;;;;;;3.63;2.92;;;24.70;48.90;;;;;;5010942;28;20033;-59
2021/09/08 02:26:50;;;;;;;3.50;2.90;;;24.70;48.90;;;;;;5024631;28;20033;-58
2021/09/08 02:29:15;;;;;;;3.30;2.88;;;24.70;48.90;;;;;;5020189;28;20044;-59
2021/09/08 02:31:41;;;;;;;3.40;2.95;;;24.70;48.90;;;;;;5023473;28;20038;-59
2021/09/08 02:34:07;;;;;;;4.03;3.03;;;24.70;48.90;;;;;;5015194;28;20121;-60
2021/09/08 02:36:32;;;;;;;3.50;2.85;;;24.70;49.00;;;;;;5010140;28;20030;-48
2021/09/08 02:39:00;;;;;;;3.25;2.60;;;24.60;48.90;;;;;;5016005;28;20106;-61
2021/09/08 02:41:26;;;;;;;3.50;2.80;;;24.60;48.90;;;;;;5025596;28;20025;-62
2021/09/08 02:43:53;;;;;;;3.70;2.80;;;24.60;48.90;;;;;;5016012;28;20318;-51
2021/09/08 02:46:18;;;;;;;3.50;2.92;;;24.60;48.90;;;;;;5008824;28;20565;-60
2021/09/08 02:48:44;;;;;;;3.50;2.90;;;24.60;48.90;;;;;;5025140;28;20133;-57
2021/09/08 02:51:10;;;;;;;3.90;3.00;;;24.60;49.00;;;;;;5020691;28;20033;-55
2021/09/08 02:53:35;;;;;;;3.92;3.20;;;24.60;49.00;;;;;;5023329;28;20041;-58
2021/09/08 02:56:02;;;;;;;3.50;2.70;;;24.60;49.00;;;;;;5024318;28;20044;-56
2021/09/08 02:58:29;;;;;;;3.55;2.78;;;24.60;49.00;;;;;;5018826;28;20026;-61
2021/09/08 03:00:54;;;;;;;3.58;2.85;;;24.60;49.00;;;;;;5011422;28;20030;-54
2021/09/08 03:03:20;;;;;;;3.22;2.60;;;24.60;49.10;;;;;;5022361;28;20029;-52
2021/09/08 03:05:47;;;;;;;3.50;2.75;;;24.60;49.10;;;;;;5020245;28;20033;-58
2021/09/08 03:08:13;;;;;;;3.40;2.90;;;24.60;49.10;;;;;;5024515;28;20045;-61
2021/09/08 03:10:39;;;;;;;3.10;2.63;;;24.60;49.10;;;;;;5018184;28;20492;-57
2021/09/08 03:13:05;;;;;;;3.83;2.92;;;24.50;49.10;;;;;;5019328;28;20037;-61
2021/09/08 03:15:31;;;;;;;3.50;2.88;;;24.50;49.10;;;;;;5022228;28;20036;-56
2021/09/08 03:17:57;;;;;;;3.53;3.00;;;24.50;49.10;;;;;;5022304;28;20021;-49
2021/09/08 03:20:23;;;;;;;3.40;3.00;;;24.60;49.20;;;;;;5026205;28;20462;-52
2021/09/08 03:22:48;;;;;;;3.50;2.83;;;24.50;49.10;;;;;;5022371;28;20025;-59
2021/09/08 03:25:14;;;;;;;3.10;2.75;;;24.50;49.10;;;;;;5020838;28;20018;-53
2021/09/08 03:27:40;;;;;;;3.35;2.75;;;24.50;49.10;;;;;;5020592;28;20116;-51
2021/09/08 03:30:07;;;;;;;3.00;2.58;;;24.50;49.20;;;;;;5026088;28;20049;-56
2021/09/08 03:32:33;;;;;;;3.20;2.63;;;24.50;49.20;;;;;;5019325;28;20037;-58
2021/09/08 03:34:58;;;;;;;3.10;2.75;;;24.50;49.20;;;;;;5012645;28;20108;-51
2021/09/08 03:37:24;;;;;;;3.72;2.90;;;24.50;49.20;;;;;;5014474;28;20069;-55
2021/09/08 03:39:51;;;;;;;2.90;2.47;;;24.50;49.20;;;;;;5018456;28;20029;-51
2021/09/08 03:42:17;;;;;;;3.28;2.70;;;24.50;49.20;;;;;;5021030;28;20029;-61
2021/09/08 03:44:43;;;;;;;3.22;2.60;;;24.50;49.30;;;;;;5026202;28;20041;-52
2021/09/08 03:47:08;;;;;;;3.30;2.80;;;24.40;49.20;;;;;;5026342;28;20048;-61
2021/09/08 03:49:34;;;;;;;3.53;2.67;;;24.40;49.30;;;;;;5022016;28;20033;-56
2021/09/08 03:52:00;;;;;;;3.58;2.65;;;24.40;49.30;;;;;;5018663;28;20121;-57
2021/09/08 03:54:25;;;;;;;2.85;2.55;;;24.40;49.30;;;;;;5026099;28;20032;-59
2021/09/08 03:56:51;;;;;;;3.10;2.72;;;24.40;49.30;;;;;;5023992;28;20037;-56
2021/09/08 03:59:16;;;;;;;3.25;2.58;;;24.40;49.30;;;;;;5023234;28;20025;-52
2021/09/08 04:01:43;;;;;;;3.17;2.78;;;24.40;49.30;;;;;;5020474;28;20121;-59
2021/09/08 04:04:09;;;;;;;3.22;2.70;;;24.40;49.30;;;;;;5020746;28;20029;-48
2021/09/08 04:06:34;;;;;;;3.10;2.55;;;24.40;49.30;;;;;;5025007;28;20029;-58
2021/09/08 04:09:00;;;;;;;3.13;2.63;;;24.40;49.30;;;;;;5020913;28;20065;-58
2021/09/08 04:11:25;;;;;;;3.00;2.38;;;24.40;49.40;;;;;;5020862;28;20030;-58
2021/09/08 04:13:51;;;;;;;3.28;2.92;;;24.30;49.30;;;;;;5013365;28;20040;-51
2021/09/08 04:16:17;;;;;;;3.10;2.65;;;24.40;49.40;;;;;;5017882;28;20071;-47
2021/09/08 04:18:42;;;;;;;3.35;2.90;;;24.30;49.80;;;;;;5026715;28;20037;-59
2021/09/08 04:21:08;;;;;;;3.13;2.72;;;24.30;49.30;;;;;;5021732;28;20133;-58
2021/09/08 04:23:33;;;;;;;3.20;2.60;;;24.30;49.40;;;;;;5019631;28;20033;-59
2021/09/08 04:25:59;;;;;;;3.20;2.70;;;24.30;49.40;;;;;;5010891;28;20025;-52
2021/09/08 04:28:25;;;;;;;3.50;2.80;;;24.30;49.40;;;;;;5028702;28;20036;-53
2021/09/08 04:30:50;;;;;;;3.28;2.70;;;24.30;49.40;;;;;;5020298;28;20135;-57
2021/09/08 04:33:16;;;;;;;3.40;2.75;;;24.30;49.90;;;;;;5023146;28;20037;-59
2021/09/08 04:35:41;;;;;;;3.10;2.60;;;24.30;49.40;;;;;;5027236;28;20044;-48
2021/09/08 04:38:07;;;;;;;3.10;2.63;;;24.30;49.40;;;;;;5022946;28;20445;-51
2021/09/08 04:40:32;;;;;;;3.65;2.85;;;24.30;49.40;;;;;;5022862;28;20032;-57
2021/09/08 04:42:58;;;;;;;3.13;2.53;;;24.30;49.40;;;;;;5021115;28;20667;-51
2021/09/08 04:45:24;;;;;;;2.80;2.45;;;24.30;49.50;;;;;;5015846;28;20033;-55
2021/09/08 04:47:49;;;;;;;3.28;2.65;;;24.30;49.50;;;;;;5026754;28;20018;-57
2021/09/08 04:50:15;;;;;;;3.00;2.58;;;24.30;49.50;;;;;;5029330;28;20049;-60
2021/09/08 04:52:41;;;;;;;2.88;2.33;;;24.30;49.50;;;;;;5025827;28;20029;-55
2021/09/08 04:55:07;;;;;;;3.28;2.50;;;24.30;49.50;;;;;;5016981;28;20025;-53
2021/09/08 04:57:33;;;;;;;3.47;2.80;;;24.30;49.50;;;;;;5024923;28;20034;-53
2021/09/08 04:59:59;;;;;;;3.15;2.72;;;24.20;50.00;;;;;;5030227;28;20091;-53
2021/09/08 05:02:25;;;;;;;3.45;2.80;;;24.20;49.50;;;;;;5026357;28;20709;-58
2021/09/08 05:04:50;;;;;;;3.10;2.50;;;24.20;49.50;;;;;;5017277;28;20030;-55
2021/09/08 05:07:16;;;;;;;3.13;2.53;;;24.20;49.50;;;;;;5024564;28;20465;-56
2021/09/08 05:09:41;;;;;;;3.10;2.78;;;24.20;49.50;;;;;;5041866;28;20035;-61
2021/09/08 05:12:07;;;;;;;3.60;2.80;;;24.20;49.60;;;;;;5039325;28;20392;-59
2021/09/08 05:14:33;;;;;;;3.20;2.60;;;24.20;49.60;;;;;;5022665;28;20041;-61
2021/09/08 05:16:58;;;;;;;3.22;2.70;;;24.20;49.60;;;;;;5017257;28;20033;-61
2021/09/08 05:19:24;;;;;;;3.30;2.80;;;24.20;49.60;;;;;;5022599;28;20057;-58
2021/09/08 05:21:49;;;;;;;2.90;2.50;;;24.20;49.60;;;;;;5022947;28;20087;-61
2021/09/08 05:24:15;;;;;;;3.45;2.70;;;24.20;49.60;;;;;;5025141;28;20441;-59
2021/09/08 05:26:40;;;;;;;3.30;2.60;;;24.20;49.60;;;;;;5023541;28;20032;-52
2021/09/08 05:29:06;;;;;;;3.15;2.67;;;24.20;49.60;;;;;;5025042;28;20033;-57
2021/09/08 05:31:32;;;;;;;3.40;2.70;;;24.10;50.10;;;;;;5021034;28;20061;-60
2021/09/08 05:33:57;;;;;;;2.92;2.50;;;24.20;49.60;;;;;;5024613;28;20045;-51
2021/09/08 05:36:23;;;;;;;3.10;2.60;;;24.10;49.60;;;;;;5013387;28;20026;-54
2021/09/08 05:38:50;;;;;;;3.20;2.42;;;24.10;49.60;;;;;;5017627;28;20032;-51
2021/09/08 05:41:16;;;;;;;3.13;2.50;;;24.10;49.60;;;;;;5019422;28;20079;-59
2021/09/08 05:43:42;;;;;;;2.83;2.30;;;24.10;49.70;;;;;;5021009;28;20037;-55
2021/09/08 05:46:07;;;;;;;2.90;2.50;;;24.10;49.70;;;;;;5017948;28;20034;-59
2021/09/08 05:48:33;;;;;;;2.85;2.40;;;24.10;49.60;;;;;;5028778;28;20087;-58
2021/09/08 05:51:00;;;;;;;2.83;2.30;;;24.10;49.80;;;;;;5021567;28;20033;-61
2021/09/08 05:53:25;;;;;;;3.17;2.70;;;24.20;49.80;;;;;;5025739;28;20545;-52
2021/09/08 05:55:53;;;;;;;3.42;2.75;;;24.30;49.70;;;;;;5023118;28;20045;-58
2021/09/08 05:58:19;;;;;;;3.70;3.10;;;24.40;50.10;;;;;;5017806;28;20026;-51
2021/09/08 06:00:45;;;;;;;3.40;2.90;;;24.50;49.30;;;;;;5009075;28;20114;-60
2021/09/08 06:03:10;;;;;;;3.95;3.30;;;24.60;49.20;;;;;;5011548;28;20125;-57
2021/09/08 06:05:36;;;;;;;3.90;3.20;;;24.70;49.10;;;;;;5009813;28;20041;-56
2021/09/08 06:08:02;;;;;;;3.80;3.20;;;24.80;48.90;;;;;;5022999;28;20056;-58
2021/09/08 06:10:27;;;;;;;3.40;2.97;;;24.90;48.80;;;;;;5021407;28;20037;-58
2021/09/08 06:12:53;;;;;;;3.50;3.20;;;24.90;48.60;;;;;;5020028;28;20034;-58
2021/09/08 06:15:20;;;;;;;3.50;3.10;;;25.00;48.60;;;;;;5013986;28;20505;-61
2021/09/08 06:17:46;;;;;;;3.95;3.28;;;25.10;48.60;;;;;;5010659;28;20156;-55
2021/09/08 06:20:12;;;;;;;3.70;3.20;;;25.10;48.30;;;;;;5021483;28;20112;-54
2021/09/08 06:22:38;;;;;;;3.60;2.95;;;25.20;48.30;;;;;;5023883;28;20104;-60
2021/09/08 06:25:04;;;;;;;3.40;2.92;;;25.30;48.20;;;;;;5026243;28;20544;-53
2021/09/08 06:27:30;;;;;;;3.30;2.90;;;25.30;48.10;;;;;;5007825;28;20470;-59
2021/09/08 06:29:55;;;;;;;3.35;2.83;;;25.40;48.10;;;;;;5020995;28;20036;-59
2021/09/08 06:32:21;;;;;;;3.47;2.80;;;25.40;48.20;;;;;;5026709;28;20049;-59
2021/09/08 06:34:48;;;;;;;3.05;2.60;;;25.30;48.10;;;;;;5027279;28;20130;-60
2021/09/08 06:37:14;;;;;;;2.83;2.35;;;25.30;48.20;;;;;;5010892;28;20041;-60
2021/09/08 06:39:40;;;;;;;3.45;2.85;;;25.30;48.20;;;;;;5021816;28;20028;-51
2021/09/08 06:42:06;;;;;;;3.25;2.75;;;25.30;48.20;;;;;;5046598;28;20175;-57
2021/09/08 06:44:32;;;;;;;3.30;2.60;;;25.40;48.20;;;;;;5016133;28;20046;-59
2021/09/08 06:46:57;;;;;;;3.30;2.85;;;25.40;48.20;;;;;;5019400;28;20484;-53
2021/09/08 06:49:24;;;;;;;2.80;2.50;;;25.40;48.20;;;;;;5026765;28;20132;-53
2021/09/08 06:51:49;;;;;;;3.40;2.67;;;25.40;48.20;;;;;;5024653;28;20037;-52
2021/09/08 06:54:15;;;;;;;3.17;2.80;;;25.40;48.20;;;;;;5023691;28;20033;-61
2021/09/08 06:56:41;;;;;;;3.00;2.60;;;25.40;48.20;;;;;;5016531;28;20513;-62
2021/09/08 06:59:07;;;;;;;3.83;2.88;;;25.40;48.20;;;;;;5021109;28;20025;-52
2021/09/08 07:01:33;;;;;;;3.20;2.80;;;25.40;48.20;;;;;;5021264;28;20048;-54
2021/09/08 07:03:58;;;;;;;3.42;2.67;;;25.40;48.10;;;;;;5016581;28;20029;-59
2021/09/08 07:06:24;;;;;;;4.43;3.00;;;25.40;48.10;;;;;;5007826;28;20508;-54
2021/09/08 07:08:50;;;;;;;3.50;2.90;;;25.40;48.10;;;;;;5024852;28;20033;-52
2021/09/08 07:11:17;;;;;;;3.70;2.80;;;25.40;48.00;;;;;;5022069;28;20651;-58
2021/09/08 07:13:43;;;;;;;3.30;2.83;;;25.40;48.00;;;;;;5025342;28;20040;-53
2021/09/08 07:16:09;;;;;;;3.40;2.80;;;25.50;48.10;;;;;;5020367;28;20038;-55
2021/09/08 07:18:35;;;;;;;4.57;2.75;;;25.50;48.10;;;;;;5014331;28;20108;-59
2021/09/08 07:21:01;;;;;;;3.58;2.90;;;25.50;48.10;;;;;;5023005;28;20172;-53
2021/09/08 07:23:26;;;;;;;3.25;2.90;;;25.50;48.00;;;;;;5010554;28;20493;-57
2021/09/08 07:25:52;;;;;;;3.20;2.60;;;25.50;48.10;;;;;;5024746;28;20072;-55
2021/09/08 07:28:18;;;;;;;3.35;3.00;;;25.50;48.00;;;;;;5012833;28;20026;-58
2021/09/08 07:30:46;;;;;;;3.47;2.88;;;25.60;48.10;;;;;;5018934;28;20061;-61
2021/09/08 07:33:12;;;;;;;3.03;2.57;;;25.60;48.20;;;;;;5026589;28;20036;-58
2021/09/08 07:35:38;;;;;;;3.40;2.90;;;25.60;48.10;;;;;;5020067;28;20439;-59
2021/09/08 07:38:03;;;;;;;3.22;2.63;;;25.60;48.00;;;;;;5021748;28;20813;-52
2021/09/08 07:40:29;;;;;;;2.90;2.53;;;25.60;48.00;;;;;;5026670;28;20026;-60
2021/09/08 07:42:55;;;;;;;3.70;2.90;;;25.60;48.10;;;;;;5020357;28;20022;-60
2021/09/08 07:45:21;;;;;;;3.05;2.70;;;25.60;48.00;;;;;;5014064;28;20026;-61
2021/09/08 07:47:47;;;;;;;3.55;2.80;;;25.60;48.20;;;;;;5014290;28;20113;-58
2021/09/08 07:50:13;;;;;;;3.28;2.75;;;25.60;48.00;;;;;;5011501;28;20105;-53
2021/09/08 07:52:38;;;;;;;3.67;3.00;;;25.60;48.00;;;;;;5007580;28;20026;-60
2021/09/08 07:55:05;;;;;;;3.65;3.05;;;25.70;48.00;;;;;;5019743;28;20428;-60
2021/09/08 07:57:31;;;;;;;3.40;2.80;;;25.70;48.10;;;;;;5026522;28;20098;-59
2021/09/08 07:59:57;;;;;;;3.63;2.67;;;25.70;48.20;;;;;;5024469;28;20022;-59
2021/09/08 08:02:22;;;;;;;2.83;2.50;;;25.70;48.20;;;;;;5021554;28;20030;-60
2021/09/08 08:04:48;;;;;;;3.03;2.60;;;25.60;48.20;;;;;;5022222;28;20053;-56
2021/09/08 08:07:14;;;;;;;3.75;2.97;;;25.70;48.30;;;;;;5027814;28;20434;-54
2021/09/08 08:09:43;;;;;;;3.42;2.85;;;25.70;48.20;;;;;;5032102;28;20032;-56
2021/09/08 08:12:10;;;;;;;3.25;2.78;;;25.70;48.10;;;;;;5035873;28;20031;-55
2021/09/08 08:14:36;;;;;;;3.40;2.90;;;25.70;48.00;;;;;;5032364;28;20034;-60
2021/09/08 08:17:03;;;;;;;3.65;2.67;;;25.70;48.00;;;;;;5019376;28;20036;-58
2021/09/08 08:19:29;;;;;;;3.60;2.85;;;25.70;48.20;;;;;;5015721;28;20030;-55
2021/09/08 08:21:54;;;;;;;3.30;2.72;;;25.70;48.20;;;;;;5028183;28;20368;-57
2021/09/08 08:24:20;;;;;;;3.65;2.90;;;25.80;48.20;;;;;;5020242;28;20026;-58
2021/09/08 08:26:46;;;;;;;3.35;2.90;;;25.80;48.20;;;;;;5028873;28;20416;-58
2021/09/08 08:29:11;;;;;;;3.60;2.80;;;25.80;48.20;;;;;;5021324;28;20068;-55
2021/09/08 08:31:37;;;;;;;3.75;3.05;;;25.80;48.30;;;;;;5027465;28;20034;-61
2021/09/08 08:34:03;;;;;;;3.92;3.13;;;25.70;48.20;;;;;;5016675;28;20548;-57
2021/09/08 08:36:29;;;;;;;3.85;2.60;;;25.80;48.20;;;;;;5014107;28;20061;-51
2021/09/08 08:38:54;;;;;;;3.20;2.70;;;25.80;48.20;;;;;;5019367;28;20023;-54
2021/09/08 08:41:22;;;;;;;3.38;2.72;;;25.80;48.30;;;;;;5021557;28;20026;-57
2021/09/08 08:43:48;;;;;;;3.28;2.80;;;25.80;48.30;;;;;;5023159;28;20174;-53
2021/09/08 08:46:14;;;;;;;3.97;3.00;;;25.80;48.20;;;;;;5027460;28;20029;-59
2021/09/08 08:48:39;;;;;;;3.47;2.95;;;25.80;48.20;;;;;;5023702;28;20029;-57
2021/09/08 08:51:05;;;;;;;3.65;2.90;;;25.80;48.20;;;;;;5025639;28;20026;-56
2021/09/08 08:53:31;;;;;;;3.45;2.92;;;25.90;48.80;;;;;;5021321;28;20083;-56
2021/09/08 08:55:57;;;;;;;3.78;2.80;;;25.90;48.20;;;;;;5018704;28;20026;-57
2021/09/08 08:58:22;;;;;;;3.63;3.00;;;25.90;48.20;;;;;;5016424;28;20041;-57
2021/09/08 09:01:08;;;;;;;3.42;2.80;;;25.90;48.20;;;;;;5025245;28;20033;-58
2021/09/08 09:03:33;;;;;;;4.40;2.90;;;25.90;48.30;;;;;;5010993;28;20695;-53
2021/09/08 09:06:03;;;;;;;3.17;2.60;;;25.90;48.30;;;;;;5013211;28;20075;-59
2021/09/08 09:08:33;;;;;;;3.20;2.70;;;25.90;48.30;;;;;;5008856;28;20034;-57
2021/09/08 09:11:00;;;;;;;3.67;2.88;;;25.90;48.40;;;;;;5018206;28;20033;-53
2021/09/08 09:13:33;;;;;;;3.65;2.97;;;25.90;48.50;;;;;;5027470;28;20140;-59
2021/09/08 09:16:07;;;;;;;3.45;2.88;;;25.90;48.40;;;;;;5025754;28;20595;-58
2021/09/08 09:18:38;;;;;;;3.50;2.80;;;25.90;48.30;;;;;;5023200;28;20454;-58
2021/09/08 09:21:11;;;;;;;3.50;2.92;;;26.00;48.40;;;;;;5012549;28;20049;-51
2021/09/08 09:23:51;;;;;;;3.22;2.80;;;25.90;48.30;;;;;;5043400;28;20119;-53
2021/09/08 09:26:24;;;;;;;3.40;2.80;;;25.90;48.30;;;;;;5024488;28;20037;-57
2021/09/08 09:28:51;;;;;;;3.60;2.90;;;25.90;48.30;;;;;;5036095;28;20041;-60
2021/09/08 09:31:20;;;;;;;3.63;2.60;;;25.90;48.40;;;;;;5016916;28;20041;-56
2021/09/08 09:33:52;;;;;;;3.40;2.88;;;26.00;48.40;;;;;;5027921;28;20037;-56
2021/09/08 09:36:23;;;;;;;3.28;2.95;;;26.00;48.40;;;;;;5025148;28;20117;-58
2021/09/08 09:38:50;;;;;;;3.30;2.95;;;26.00;48.40;;;;;;5021024;28;20535;-54
2021/09/08 09:41:22;;;;;;;4.38;2.80;;;26.00;48.30;;;;;;5016470;28;20045;-58
2021/09/08 09:43:48;;;;;;;3.03;2.63;;;26.00;48.40;;;;;;5018673;28;20030;-52
2021/09/08 09:46:13;;;;;;;3.78;2.90;;;26.00;48.40;;;;;;5021946;28;20466;-58
2021/09/08 09:48:39;;;;;;;3.30;2.60;;;26.00;48.40;;;;;;5035032;28;20893;-57
2021/09/08 09:51:09;;;;;;;4.03;2.97;;;26.00;48.40;;;;;;5027366;28;20082;-58
2021/09/08 09:53:35;;;;;;;3.40;2.72;;;26.00;48.40;;;;;;5026252;28;20056;-57
2021/09/08 09:56:01;;;;;;;2.95;2.47;;;26.00;48.40;;;;;;5027368;28;20033;-56
2021/09/08 09:58:27;;;;;;;3.22;2.70;;;26.10;48.50;;;;;;5025492;28;20075;-58
2021/09/08 10:00:53;;;;;;;3.20;2.60;;;26.00;48.60;;;;;;5016384;28;20030;-59
2021/09/08 10:03:20;;;;;;;4.43;3.00;;;26.00;48.50;;;;;;5019448;28;20064;-58
2021/09/08 10:05:46;;;;;;;3.40;2.72;;;26.10;48.60;;;;;;5016355;28;20113;-58
2021/09/08 10:08:15;;;;;;;3.35;2.67;;;26.10;48.50;;;;;;5015701;28;20064;-52
2021/09/08 10:10:42;;;;;;;4.25;2.67;;;26.10;48.50;;;;;;5020771;28;20100;-56
2021/09/08 10:13:16;;;;;;;3.28;2.70;;;26.00;49.10;;;;;;5017503;28;20541;-50
2021/09/08 10:15:43;;;;;;;3.42;2.88;;;26.00;48.50;;;;;;5026558;28;20064;-58
2021/09/08 10:18:14;;;;;;;3.42;3.00;;;26.10;48.50;;;;;;5009178;28;20057;-60
2021/09/08 10:20:43;;;;;;;3.47;2.90;;;26.10;48.40;;;;;;5024758;28;20159;-54
2021/09/08 10:23:11;;;;;;;;;;;26.10;48.30;;;;;;5033432;28;20033;-52
2021/09/08 10:25:37;;;;;;;3.45;2.92;;;26.10;48.30;;;;;;5017845;28;19913;-60
2021/09/08 10:28:05;;;;;;;3.50;3.05;;;26.10;48.30;;;;;;5021714;28;20026;-57
2021/09/08 10:30:30;;;;;;;3.65;3.00;;;26.10;48.30;;;;;;5017496;28;20516;-51
2021/09/08 10:32:56;;;;;;;3.30;3.00;;;26.10;48.30;;;;;;5026619;28;20025;-55
2021/09/08 10:35:23;;;;;;;3.30;2.83;;;26.00;48.30;;;;;;5017712;28;20068;-58
2021/09/08 10:37:51;;;;;;;3.67;2.90;;;26.00;48.80;;;;;;5011379;28;20029;-60
2021/09/08 10:40:20;;;;;;;3.13;2.60;;;26.00;48.40;;;;;;5023944;28;20412;-60
2021/09/08 10:42:56;;;;;;;3.58;2.88;;;26.00;48.50;;;;;;5017275;28;20142;-55
2021/09/08 10:45:27;;;;;;;4.93;3.00;;;26.00;48.50;;;;;;5018184;28;20030;-51
2021/09/08 10:47:54;;;;;;;3.63;2.92;;;26.00;48.50;;;;;;5012777;28;20029;-60
2021/09/08 10:50:34;;;;;;;3.75;2.83;;;26.00;48.50;;;;;;5025072;28;20060;-58
2021/09/08 10:53:22;;;;;;;3.35;2.85;;;26.00;48.50;;;;;;5032152;28;20038;-58
2021/09/08 10:55:50;;;;;;;3.40;2.72;;;26.00;48.40;;;;;;5005871;28;20037;-53
2021/09/08 10:58:16;;;;;;;3.83;2.90;;;26.10;48.50;;;;;;5015711;28;20101;-60
2021/09/08 11:00:43;;;;;;;3.35;2.70;;;26.10;48.40;;;;;;5010441;28;20145;-60
2021/09/08 11:03:15;;;;;;;3.78;3.10;;;26.10;48.50;;;;;;5013724;28;20512;-60
2021/09/08 11:05:58;;;;;;;4.00;3.10;;;26.10;48.50;;;;;;5015940;28;20545;-52
2021/09/08 11:08:32;;;;;;;4.07;3.10;;;26.10;48.50;;;;;;5015740;28;20529;-58
2021/09/08 11:11:16;;;;;;;3.35;2.85;;;26.10;48.50;;;;;;5010439;28;20057;-58
2021/09/08 11:13:43;;;;;;;3.45;2.90;;;26.10;48.50;;;;;;5029014;28;20059;-60
2021/09/08 11:16:24;;;;;;;3.17;2.58;;;26.10;48.50;;;;;;5017431;28;20103;-60
2021/09/08 11:18:51;;;;;;;3.67;3.00;;;26.10;48.50;;;;;;5025720;28;20057;-58
2021/09/08 11:21:20;;;;;;;3.20;2.80;;;26.10;48.50;;;;;;5018317;28;20029;-58
2021/09/08 11:23:47;;;;;;;3.88;3.15;;;26.10;48.60;;;;;;5020881;28;20018;-58
2021/09/08 11:26:13;;;;;;;3.67;2.83;;;26.10;48.60;;;;;;5011974;28;20034;-59
2021/09/08 11:28:40;;;;;;;4.10;3.15;;;26.20;48.60;;;;;;5009559;28;20057;-56
2021/09/08 11:31:19;;;;;;;3.50;2.80;;;26.20;49.20;;;;;;5026235;28;20038;-55
2021/09/08 11:33:45;;;;;;;;;;;26.20;48.70;;;;;;5023822;28;20037;-59
2021/09/08 11:36:20;;;;;;;3.15;2.70;;;26.20;48.70;;;;;;5028881;28;19963;-60
2021/09/08 11:38:48;;;;;;;3.65;3.03;;;26.20;48.70;;;;;;5030274;28;20124;-59
2021/09/08 11:41:17;;;;;;;3.60;3.03;;;26.20;48.70;;;;;;5026048;28;20030;-58
2021/09/08 11:43:47;;;;;;;3.58;2.92;;;26.20;48.70;;;;;;5019461;28;20040;-57
2021/09/08 11:46:22;;;;;;;2.97;2.58;;;26.20;48.70;;;;;;5025102;28;20031;-56
2021/09/08 11:49:02;;;;;;;3.10;2.67;;;26.20;48.70;;;;;;5020833;28;20033;-52
2021/09/08 11:51:27;;;;;;;3.95;2.72;;;26.20;48.70;;;;;;5023874;28;20034;-59
2021/09/08 11:53:55;;;;;;;3.45;2.80;;;26.20;48.70;;;;;;5028897;28;20034;-50
2021/09/08 11:56:25;;;;;;;3.30;2.80;;;26.20;48.70;;;;;;5024968;28;20029;-61
2021/09/08 11:59:00;;;;;;;3.53;2.72;;;26.20;48.70;;;;;;5023370;28;20033;-55
2021/09/08 12:01:31;;;;;;;3.70;3.10;;;26.20;49.30;;;;;;5033806;28;20135;-55
2021/09/08 12:03:59;;;;;;;3.50;2.83;;;26.30;48.80;;;;;;5040544;28;20021;-57
2021/09/08 12:06:27;;;;;;;3.45;2.67;;;26.30;48.90;;;;;;5033653;28;20112;-60
2021/09/08 12:09:01;;;;;;;4.60;3.00;;;26.30;48.90;;;;;;5030872;28;20060;-58
2021/09/08 12:11:37;;;;;;;3.90;2.80;;;26.30;48.90;;;;;;5030218;28;20337;-58
2021/09/08 12:14:33;;;;;;;3.38;2.83;;;26.30;48.80;;;;;;5030468;28;20085;-59
2021/09/08 12:17:13;;;;;;;3.10;2.60;;;26.30;49.40;;;;;;5039913;28;20064;-59
2021/09/08 12:19:57;;;;;;;3.15;2.67;;;26.30;49.50;;;;;;5038258;28;20021;-57
2021/09/08 12:22:43;;;;;;;3.33;2.80;;;26.30;49.00;;;;;;5038391;28;20034;-61
2021/09/08 12:25:16;;;;;;;3.22;2.78;;;26.30;48.90;;;;;;5029648;28;20558;-56
2021/09/08 12:27:44;;;;;;;3.15;2.60;;;26.40;49.00;;;;;;5054003;28;20350;-54
2021/09/08 12:30:22;;;;;;;3.58;2.78;;;26.30;49.00;;;;;;5042054;28;20737;-60
2021/09/08 12:33:04;;;;;;;3.15;2.50;;;26.30;49.10;;;;;;5039125;28;20048;-58
2021/09/08 12:35:32;;;;;;;3.35;2.70;;;26.30;49.10;;;;;;5032394;28;20028;-57
2021/09/08 12:37:58;;;;;;;4.20;2.80;;;26.30;49.10;;;;;;5053758;28;20120;-61
2021/09/08 12:40:24;;;;;;;3.35;2.70;;;26.40;49.10;;;;;;5032387;28;20037;-60
2021/09/08 12:42:50;;;;;;;3.42;2.63;;;26.40;49.10;;;;;;5026394;28;20549;-55
2021/09/08 12:45:15;;;;;;;2.95;2.40;;;26.40;49.10;;;;;;5029337;28;20025;-59
2021/09/08 12:47:58;;;;;;;3.55;2.97;;;26.40;49.00;;;;;;5039764;28;20124;-58